Time;durP1;ratioP1;P1;durP2;ratioP2;P2;SDS_P1;SDS_P2;PMS_P1;PMS_P2;Temp;Humidity;BMP_temperature;BMP_pressure;BME280_temperature;BME280_humidity;BME280_pressure;Samples;Min_cycle;Max_cycle;Signal;HPM_P1;HPM_P2
2020/12/13 00:01:06;;;;;;;41.95;22.98;;;;;;;9.10;56.49;100146.69;5002254;28;96749;-77
2020/12/13 00:03:33;;;;;;;39.72;20.45;;;;;;;9.11;56.30;100152.00;5002389;28;97915;-76
2020/12/13 00:06:02;;;;;;;44.03;22.48;;;;;;;9.09;56.16;100148.41;5000029;28;98330;-76
2020/12/13 00:08:29;;;;;;;41.80;23.30;;;;;;;9.09;56.28;100150.09;5000420;28;97596;-75
2020/12/13 00:10:57;;;;;;;39.45;21.75;;;;;;;9.10;56.21;100154.53;5001242;28;96907;-75
2020/12/13 00:13:24;;;;;;;39.40;21.95;;;;;;;9.11;56.53;100151.09;5000108;28;99043;-75
2020/12/13 00:15:55;;;;;;;44.45;22.77;;;;;;;9.10;56.06;100155.41;5002762;28;99823;-74
2020/12/13 00:18:22;;;;;;;40.60;22.70;;;;;;;9.09;56.47;100158.88;5001649;28;97146;-76
2020/12/13 00:20:50;;;;;;;44.90;22.73;;;;;;;9.10;56.43;100162.41;5008179;28;97843;-75
2020/12/13 00:23:17;;;;;;;42.05;23.02;;;;;;;9.07;56.13;100162.22;4998696;28;98082;-75
2020/12/13 00:25:44;;;;;;;44.90;21.05;;;;;;;9.07;55.87;100164.84;4998838;28;98199;-75
2020/12/13 00:28:12;;;;;;;37.50;22.52;;;;;;;9.07;55.86;100165.75;5000277;28;96584;-76
2020/12/13 00:30:39;;;;;;;36.05;21.65;;;;;;;9.06;56.25;100165.69;4999546;28;97016;-76
2020/12/13 00:33:08;;;;;;;53.57;31.03;;;;;;;9.32;55.61;100164.34;4997576;28;97810;-76
2020/12/13 00:35:35;;;;;;;39.40;22.35;;;;;;;9.18;55.63;100169.78;4999186;28;99473;-76
2020/12/13 00:38:02;;;;;;;42.10;22.88;;;;;;;9.13;55.95;100170.41;5004392;28;98153;-76
2020/12/13 00:40:30;;;;;;;41.15;22.42;;;;;;;9.12;56.13;100174.72;4998635;27;97944;-76
2020/12/13 00:42:58;;;;;;;36.15;21.20;;;;;;;9.11;56.19;100172.03;4995337;28;99167;-75
2020/12/13 00:45:25;;;;;;;38.33;22.13;;;;;;;9.10;56.07;100172.88;4999135;28;99120;-75
2020/12/13 00:47:54;;;;;;;38.58;21.58;;;;;;;9.11;56.19;100182.53;5016897;27;97312;-76
2020/12/13 00:50:22;;;;;;;37.75;22.08;;;;;;;9.10;56.02;100188.59;5004179;28;97320;-75
2020/12/13 00:52:50;;;;;;;42.38;21.88;;;;;;;9.09;55.87;100189.41;4986642;28;100892;-76
2020/12/13 00:55:18;;;;;;;39.13;23.00;;;;;;;9.07;55.97;100191.03;4999090;28;99027;-75
2020/12/13 00:57:45;;;;;;;40.70;21.23;;;;;;;9.05;56.00;100192.72;5000067;28;97108;-75
2020/12/13 01:00:13;;;;;;;45.50;23.05;;;;;;;9.04;56.30;100193.53;4986918;28;98256;-76
2020/12/13 01:03:01;;;;;;;45.42;23.67;;;;;;;9.05;56.24;100197.97;5001399;28;99173;-76
2020/12/13 01:05:29;;;;;;;37.78;20.98;;;;;;;9.04;55.86;100201.38;5022303;22;102183;-70
2020/12/13 01:07:57;;;;;;;44.17;21.92;;;;;;;9.03;56.07;100199.59;5021747;28;96874;-70
2020/12/13 01:10:24;;;;;;;38.40;20.88;;;;;;;9.04;56.13;100206.63;5020172;27;96945;-69
2020/12/13 01:12:52;;;;;;;36.78;21.83;;;;;;;9.04;56.25;100210.16;5013122;28;99043;-70
2020/12/13 01:15:19;;;;;;;42.45;23.65;;;;;;;9.04;56.03;100211.88;5009139;28;98290;-70
2020/12/13 01:17:49;;;;;;;41.97;22.90;;;;;;;9.03;56.02;100223.19;4999750;28;97299;-71
2020/12/13 01:20:17;;;;;;;46.83;22.48;;;;;;;9.03;56.35;100223.19;5008584;28;97102;-70
2020/12/13 01:22:45;;;;;;;40.10;21.15;;;;;;;9.03;55.98;100225.81;5006150;28;99281;-71
2020/12/13 01:25:13;;;;;;;42.88;22.35;;;;;;;9.01;56.37;100227.44;5004010;28;97092;-71
2020/12/13 01:27:40;;;;;;;44.78;22.73;;;;;;;8.99;56.17;100236.94;5006287;28;97130;-71
2020/12/13 01:30:08;;;;;;;41.50;21.70;;;;;;;9.00;55.95;100233.47;5008161;28;97492;-71
2020/12/13 01:32:37;;;;;;;39.88;20.80;;;;;;;8.99;56.12;100242.19;5007216;28;98035;-74
2020/12/13 01:35:06;;;;;;;40.15;22.02;;;;;;;8.99;55.79;100243.09;5001823;28;97854;-70
2020/12/13 01:37:33;;;;;;;41.22;22.77;;;;;;;9.00;56.26;100241.34;5007717;28;96789;-72
2020/12/13 01:40:03;;;;;;;42.47;21.70;;;;;;;8.99;55.90;100239.56;4999310;28;97139;-71
2020/12/13 01:42:37;;;;;;;41.15;20.60;;;;;;;8.98;56.34;100245.59;5008819;27;99071;-71
2020/12/13 01:45:05;;;;;;;42.80;21.08;;;;;;;8.99;56.44;100244.78;5018622;27;97888;-71
2020/12/13 01:47:32;;;;;;;39.83;20.85;;;;;;;9.00;56.47;100241.34;5010189;27;97040;-71
2020/12/13 01:50:00;;;;;;;39.58;21.88;;;;;;;9.01;56.11;100253.63;5006452;28;96909;-70
2020/12/13 01:52:42;;;;;;;38.45;19.85;;;;;;;8.99;56.42;100239.56;5011298;28;97948;-71
2020/12/13 01:55:11;;;;;;;43.15;20.77;;;;;;;9.00;55.90;100257.06;5004007;28;96578;-71
2020/12/13 01:57:40;;;;;;;43.05;22.17;;;;;;;9.00;56.13;100252.72;5010992;27;98234;-70
2020/12/13 02:00:09;;;;;;;36.60;20.15;;;;;;;9.02;55.86;100258.03;5006279;28;97334;-70
2020/12/13 02:02:42;;;;;;;40.00;20.35;;;;;;;9.00;55.73;100257.06;4999430;28;99312;-71
2020/12/13 02:05:10;;;;;;;46.47;22.05;;;;;;;9.02;56.02;100258.03;5007378;28;99053;-70
2020/12/13 02:07:38;;;;;;;40.28;21.60;;;;;;;9.02;56.17;100250.19;5001286;28;96766;-70
2020/12/13 02:10:09;;;;;;;40.22;20.35;;;;;;;9.01;55.98;100264.13;5007260;28;96889;-69
2020/12/13 02:12:37;;;;;;;42.22;20.67;;;;;;;9.00;56.02;100260.59;5001237;28;97885;-70
2020/12/13 02:15:06;;;;;;;40.08;22.15;;;;;;;9.02;56.27;100260.66;5014209;28;97811;-70
2020/12/13 02:17:36;;;;;;;41.53;21.70;;;;;;;9.01;55.81;100266.72;5002357;28;97327;-71
2020/12/13 02:20:09;;;;;;;40.60;21.83;;;;;;;8.99;56.05;100271.00;5001112;28;97426;-71
2020/12/13 02:22:39;;;;;;;39.97;20.90;;;;;;;9.00;56.37;100278.00;5005417;28;98027;-70
2020/12/13 02:25:11;;;;;;;39.20;21.27;;;;;;;9.01;56.48;100285.94;5017338;28;97729;-70
2020/12/13 02:27:39;;;;;;;39.38;20.30;;;;;;;9.01;55.79;100277.22;5019488;27;97222;-70
2020/12/13 02:30:07;;;;;;;40.53;20.95;;;;;;;9.01;55.74;100285.94;5006864;28;97184;-70
2020/12/13 02:32:34;;;;;;;36.70;20.00;;;;;;;9.01;56.14;100282.44;5011753;28;97859;-70
2020/12/13 02:35:03;;;;;;;39.40;21.42;;;;;;;9.01;56.17;100290.31;5007233;28;99713;-70
2020/12/13 02:37:30;;;;;;;41.03;21.55;;;;;;;9.00;56.31;100289.41;5011601;28;97512;-71
2020/12/13 02:39:59;;;;;;;42.55;21.33;;;;;;;9.01;56.09;100285.06;5011111;28;97490;-71
2020/12/13 02:42:45;;;;;;;38.65;20.42;;;;;;;9.01;56.20;100280.69;5010172;28;97891;-70
2020/12/13 02:45:12;;;;;;;42.03;22.48;;;;;;;9.01;56.13;100283.31;5005116;27;97909;-70
2020/12/13 02:47:40;;;;;;;44.58;22.55;;;;;;;9.02;55.65;100286.84;5005041;28;97289;-70
2020/12/13 02:50:08;;;;;;;41.47;21.40;;;;;;;9.01;56.08;100283.31;5007991;28;97194;-70
2020/12/13 02:52:36;;;;;;;42.55;22.45;;;;;;;9.00;55.77;100283.25;5011314;27;97761;-71
2020/12/13 02:55:04;;;;;;;39.90;20.27;;;;;;;9.00;55.75;100284.16;5011776;28;98985;-71
2020/12/13 02:57:32;;;;;;;41.13;20.33;;;;;;;8.99;56.01;100291.94;5016206;28;97115;-70
2020/12/13 02:59:59;;;;;;;42.78;21.73;;;;;;;8.99;56.04;100285.00;5014355;28;97222;-71
2020/12/13 03:02:27;;;;;;;44.63;21.65;;;;;;;9.00;55.59;100293.72;5000177;27;98169;-71
2020/12/13 03:04:55;;;;;;;42.17;20.65;;;;;;;9.01;55.73;100290.31;5010033;28;99184;-70
2020/12/13 03:07:22;;;;;;;41.95;20.85;;;;;;;9.01;55.81;100296.41;5014648;27;97193;-70
2020/12/13 03:09:50;;;;;;;38.53;19.85;;;;;;;9.01;55.92;100295.53;5012830;28;97206;-71
2020/12/13 03:12:18;;;;;;;38.63;20.15;;;;;;;9.02;55.75;100289.47;5011216;27;97962;-70
2020/12/13 03:14:45;;;;;;;45.15;21.73;;;;;;;9.04;56.13;100295.69;5014100;28;97914;-70
2020/12/13 03:17:13;;;;;;;45.65;21.25;;;;;;;9.05;55.95;100294.88;5008850;27;97073;-71
2020/12/13 03:19:40;;;;;;;43.55;21.90;;;;;;;9.05;55.86;100300.13;5006910;27;96899;-70
2020/12/13 03:22:08;;;;;;;45.33;21.67;;;;;;;9.07;55.79;100303.69;5006801;28;97814;-71
2020/12/13 03:24:35;;;;;;;53.30;28.50;;;;;;;9.35;55.01;100304.28;5012780;27;97788;-71
2020/12/13 03:27:03;;;;;;;45.50;23.55;;;;;;;9.20;55.60;100309.66;5018708;27;97090;-71
2020/12/13 03:29:31;;;;;;;46.95;22.40;;;;;;;9.17;55.30;100313.84;5014143;28;96894;-70
2020/12/13 03:31:58;;;;;;;39.53;20.33;;;;;;;9.16;55.35;100307.69;5004802;28;99030;-71
2020/12/13 03:34:27;;;;;;;41.65;21.52;;;;;;;9.13;55.76;100307.53;5022042;27;99556;-70
2020/12/13 03:36:55;;;;;;;44.72;22.05;;;;;;;9.09;55.84;100302.06;5015854;27;96715;-70
2020/12/13 03:39:22;;;;;;;39.47;21.55;;;;;;;9.07;55.65;100308.94;5022273;28;97442;-71
2020/12/13 03:41:50;;;;;;;40.38;20.50;;;;;;;9.06;55.90;100312.38;5005481;28;99001;-70
2020/12/13 03:44:18;;;;;;;40.15;21.23;;;;;;;9.04;56.12;100316.66;5007735;28;98155;-71
2020/12/13 03:46:48;;;;;;;41.35;21.85;;;;;;;9.03;55.33;100318.34;5003428;28;97177;-71
2020/12/13 03:49:17;;;;;;;43.65;22.17;;;;;;;9.02;56.04;100318.28;5001794;28;98406;-71
2020/12/13 03:51:45;;;;;;;42.75;21.40;;;;;;;9.01;55.92;100333.09;5003922;28;97990;-71
2020/12/13 03:54:12;;;;;;;40.83;20.42;;;;;;;9.00;56.28;100327.78;5000798;28;97882;-70
2020/12/13 03:56:40;;;;;;;43.97;21.77;;;;;;;8.98;55.77;100332.94;5007366;28;97627;-71
2020/12/13 03:59:07;;;;;;;42.95;21.80;;;;;;;8.99;56.25;100333.84;5014823;28;96995;-70
2020/12/13 04:01:35;;;;;;;39.97;21.77;;;;;;;8.98;56.00;100332.03;5007673;28;99141;-71
2020/12/13 04:04:03;;;;;;;43.90;20.55;;;;;;;8.98;55.66;100346.03;5011807;28;98072;-70
2020/12/13 04:06:30;;;;;;;43.42;20.75;;;;;;;8.98;55.47;100342.50;5014054;28;97213;-70
2020/12/13 04:08:58;;;;;;;47.60;23.10;;;;;;;8.96;55.75;100345.06;5013987;27;96916;-70
2020/12/13 04:11:43;;;;;;;47.33;22.55;;;;;;;8.95;56.18;100339.75;5007243;28;98179;-71
2020/12/13 04:14:10;;;;;;;44.78;22.80;;;;;;;8.95;55.60;100339.75;5008448;28;98203;-71
2020/12/13 04:16:38;;;;;;;49.13;21.67;;;;;;;8.93;55.68;100339.69;5005220;28;97047;-71
2020/12/13 04:19:06;;;;;;;45.95;21.90;;;;;;;8.93;56.10;100342.28;5004319;28;96753;-71
2020/12/13 04:21:34;;;;;;;43.38;21.83;;;;;;;8.93;56.21;100352.78;5012935;28;97969;-71
2020/12/13 04:24:02;;;;;;;48.95;25.02;;;;;;;8.93;55.74;100355.38;5006765;28;98316;-71
2020/12/13 04:26:29;;;;;;;44.20;21.42;;;;;;;8.93;55.67;100344.91;5009674;28;96939;-71
2020/12/13 04:28:56;;;;;;;42.10;21.83;;;;;;;8.94;55.96;100356.31;5013752;28;97091;-70
2020/12/13 04:31:24;;;;;;;46.47;21.38;;;;;;;8.93;55.62;100354.47;5015701;27;97902;-70
2020/12/13 04:33:52;;;;;;;45.88;21.90;;;;;;;8.93;56.05;100355.38;5013621;28;97937;-70
2020/12/13 04:36:20;;;;;;;44.58;21.60;;;;;;;8.93;55.78;100359.72;5010996;28;97251;-70
2020/12/13 04:38:48;;;;;;;40.67;20.52;;;;;;;8.94;55.74;100366.78;5013307;28;97529;-71
2020/12/13 04:41:15;;;;;;;49.17;23.80;;;;;;;8.96;55.58;100370.34;5012811;28;101402;-71
2020/12/13 04:43:42;;;;;;;42.25;21.38;;;;;;;8.95;56.36;100374.72;5013803;28;97183;-71
2020/12/13 04:46:10;;;;;;;42.45;20.98;;;;;;;8.94;55.98;100377.25;5005696;27;97545;-71
2020/12/13 04:48:38;;;;;;;39.55;20.38;;;;;;;8.93;55.75;100383.28;5014478;28;96995;-71
2020/12/13 04:51:05;;;;;;;40.25;21.45;;;;;;;8.93;56.23;100380.69;5011730;28;102890;-71
2020/12/13 04:53:34;;;;;;;46.47;21.75;;;;;;;8.92;55.79;100373.66;5012670;28;98623;-71
2020/12/13 04:56:01;;;;;;;45.78;22.73;;;;;;;8.94;56.01;100382.50;5005920;28;97503;-71
2020/12/13 04:58:29;;;;;;;39.88;20.20;;;;;;;8.93;56.15;100383.28;5012303;27;96772;-71
2020/12/13 05:00:58;;;;;;;39.13;20.75;;;;;;;8.96;55.91;100380.81;5010198;28;97870;-70
2020/12/13 05:03:27;;;;;;;43.97;21.00;;;;;;;8.96;55.87;100381.72;5008871;28;97896;-70
2020/12/13 05:05:58;;;;;;;45.78;21.75;;;;;;;8.96;55.68;100381.72;5007058;28;97349;-70
2020/12/13 05:08:26;;;;;;;43.92;21.52;;;;;;;8.96;55.88;100383.44;5010491;27;97502;-70
2020/12/13 05:10:54;;;;;;;44.15;21.55;;;;;;;8.94;55.96;100386.00;5004501;28;99319;-70
2020/12/13 05:13:21;;;;;;;40.13;19.88;;;;;;;8.96;55.75;100388.69;5017563;27;98014;-70
2020/12/13 05:15:49;;;;;;;44.47;21.95;;;;;;;8.96;55.78;100381.72;5000529;28;97179;-70
2020/12/13 05:18:17;;;;;;;45.60;22.38;;;;;;;8.96;55.50;100386.06;5000135;27;97092;-71
2020/12/13 05:21:04;;;;;;;46.10;20.52;;;;;;;8.94;55.62;100391.22;5010711;28;98943;-70
2020/12/13 05:23:50;;;;;;;44.67;22.63;;;;;;;8.95;55.79;100394.75;5006047;28;99162;-71
2020/12/13 05:26:20;;;;;;;46.95;22.30;;;;;;;8.93;55.58;100391.16;5000920;28;97203;-70
2020/12/13 05:28:48;;;;;;;47.33;21.40;;;;;;;8.95;55.86;100405.22;5001150;28;97037;-71
2020/12/13 05:31:16;;;;;;;44.35;22.85;;;;;;;8.96;55.77;100407.00;5011200;28;97793;-71
2020/12/13 05:33:47;;;;;;;45.85;21.92;;;;;;;8.95;55.77;100405.22;5003775;28;99323;-71
2020/12/13 05:36:17;;;;;;;47.78;23.23;;;;;;;8.94;56.03;100413.94;5005671;27;96801;-70
2020/12/13 05:38:46;;;;;;;43.15;23.15;;;;;;;8.95;56.12;100410.47;5008290;28;97300;-71
2020/12/13 05:41:15;;;;;;;47.72;24.17;;;;;;;8.96;55.75;100409.63;4998897;28;97900;-71
2020/12/13 05:43:47;;;;;;;45.67;21.85;;;;;;;8.95;55.89;100418.31;5013051;27;97575;-70
2020/12/13 05:46:44;;;;;;;47.15;23.15;;;;;;;8.92;55.91;100413.81;5002796;28;97376;-71
2020/12/13 05:49:28;;;;;;;43.38;22.88;;;;;;;8.92;55.91;100426.03;5010071;28;96813;-71
2020/12/13 05:51:55;;;;;;;46.15;21.48;;;;;;;8.92;55.82;100426.91;5003713;28;97886;-71
2020/12/13 05:54:24;;;;;;;43.38;20.90;;;;;;;8.93;56.05;100433.06;5007561;28;98990;-72
2020/12/13 05:56:52;;;;;;;47.58;23.40;;;;;;;8.93;56.00;100423.50;5011142;28;96916;-71
2020/12/13 05:59:21;;;;;;;44.58;21.38;;;;;;;8.91;55.61;100422.50;5013320;27;97486;-71
2020/12/13 06:01:52;;;;;;;48.33;21.98;;;;;;;8.92;55.87;100431.28;5010930;28;101785;-70
2020/12/13 06:04:24;;;;;;;43.95;20.92;;;;;;;8.92;55.61;100432.16;5015559;27;97793;-71
2020/12/13 06:06:55;;;;;;;44.20;22.95;;;;;;;8.93;56.20;100428.72;5014267;28;97296;-71
2020/12/13 06:09:31;;;;;;;42.30;21.45;;;;;;;8.92;56.10;100441.75;5012273;28;98029;-71
2020/12/13 06:12:02;;;;;;;44.95;22.45;;;;;;;8.94;56.00;100445.34;5010607;28;97901;-71
2020/12/13 06:14:30;;;;;;;58.53;30.42;;;;;;;9.18;55.64;100433.53;5016799;28;99233;-70
2020/12/13 06:17:01;;;;;;;45.80;23.77;;;;;;;9.06;55.89;100443.38;5014658;28;96681;-71
2020/12/13 06:19:32;;;;;;;46.55;23.42;;;;;;;9.02;55.67;100444.03;5011282;28;96736;-71
2020/12/13 06:22:01;;;;;;;46.85;22.60;;;;;;;9.02;56.08;100446.66;5014179;28;98171;-71
2020/12/13 06:24:29;;;;;;;47.08;21.85;;;;;;;8.99;55.97;100443.88;5010972;28;97762;-71
2020/12/13 06:26:57;;;;;;;46.75;22.23;;;;;;;8.97;55.88;100446.41;5016777;28;97059;-71
2020/12/13 06:29:26;;;;;;;45.03;22.27;;;;;;;8.97;55.86;100437.66;5010734;27;97241;-70
2020/12/13 06:31:56;;;;;;;47.28;22.02;;;;;;;8.94;56.06;100441.00;5008677;28;99133;-71
2020/12/13 06:34:24;;;;;;;40.67;20.50;;;;;;;8.92;55.93;100447.00;5006618;28;98986;-70
2020/12/13 06:36:52;;;;;;;43.80;21.60;;;;;;;8.90;56.23;100451.25;5017658;28;97204;-71
2020/12/13 06:39:19;;;;;;;42.35;22.02;;;;;;;8.89;56.01;100458.19;5008575;28;97194;-70
2020/12/13 06:41:55;;;;;;;43.13;22.08;;;;;;;8.89;55.82;100455.56;5015409;28;97817;-70
2020/12/13 06:44:22;;;;;;;49.47;22.70;;;;;;;8.90;55.84;100462.63;5007500;28;97304;-70
2020/12/13 06:46:50;;;;;;;42.75;21.60;;;;;;;8.89;55.79;100470.38;5012141;28;97313;-70
2020/12/13 06:49:19;;;;;;;47.40;23.35;;;;;;;8.89;56.40;100470.38;5017218;28;96801;-71
2020/12/13 06:51:48;;;;;;;42.97;21.90;;;;;;;8.89;55.73;100475.59;5014831;28;98288;-71
2020/12/13 06:54:18;;;;;;;40.47;21.27;;;;;;;8.89;56.03;100478.22;5010693;28;99075;-71
2020/12/13 06:56:47;;;;;;;43.35;20.60;;;;;;;8.91;56.49;100484.47;5006638;28;96957;-71
2020/12/13 06:59:15;;;;;;;43.08;21.55;;;;;;;8.93;56.02;100477.59;5010807;28;97302;-71
2020/12/13 07:01:43;;;;;;;43.67;20.95;;;;;;;8.95;55.91;100489.06;5008067;28;99252;-71
2020/12/13 07:04:26;;;;;;;42.60;22.55;;;;;;;8.90;56.03;100485.28;5013174;28;97833;-71
2020/12/13 07:06:58;;;;;;;44.67;22.17;;;;;;;8.92;56.13;100489.78;5006616;28;96957;-71
2020/12/13 07:09:27;;;;;;;44.78;23.10;;;;;;;8.92;56.12;100492.41;5011892;27;97201;-71
2020/12/13 07:11:55;;;;;;;38.33;20.60;;;;;;;8.93;55.83;100498.53;5009690;28;100089;-71
2020/12/13 07:14:25;;;;;;;54.73;29.03;;;;;;;9.19;55.68;100499.16;5008091;28;99831;-73
2020/12/13 07:17:04;;;;;;;49.75;24.23;;;;;;;9.07;55.73;100510.66;5008193;28;98185;-70
2020/12/13 07:19:34;;;;;;;48.33;23.90;;;;;;;9.02;55.63;100504.28;4993595;28;96737;-70
2020/12/13 07:22:04;;;;;;;57.33;30.13;;;;;;;9.28;55.46;100495.22;5007742;28;98986;-71
2020/12/13 07:24:31;;;;;;;58.17;30.08;;;;;;;9.41;55.08;100498.56;5015171;28;97070;-70
2020/12/13 07:26:59;;;;;;;48.10;25.63;;;;;;;9.23;55.20;100501.94;5010004;28;97144;-71
2020/12/13 07:29:28;;;;;;;43.22;22.23;;;;;;;9.18;55.83;100505.19;5006455;27;97333;-71
2020/12/13 07:31:56;;;;;;;43.38;22.08;;;;;;;9.14;55.72;100515.44;5006326;28;97924;-71
2020/12/13 07:34:24;;;;;;;43.85;21.55;;;;;;;9.13;56.21;100522.41;5010866;28;98473;-71
2020/12/13 07:36:53;;;;;;;43.55;21.52;;;;;;;9.13;55.78;100519.78;5022114;28;96811;-71
2020/12/13 07:39:22;;;;;;;39.33;21.58;;;;;;;9.11;56.01;100513.56;5009297;28;98989;-70
2020/12/13 07:41:50;;;;;;;44.00;22.05;;;;;;;9.13;55.53;100519.78;5016026;28;98137;-70
2020/12/13 07:44:27;;;;;;;43.45;21.35;;;;;;;9.11;56.06;100521.41;5015533;28;97776;-70
2020/12/13 07:46:55;;;;;;;43.53;21.27;;;;;;;9.12;55.83;100517.97;5011515;28;97102;-71
2020/12/13 07:49:22;;;;;;;43.35;22.33;;;;;;;9.13;55.66;100522.41;5010331;28;97135;-71
2020/12/13 07:51:51;;;;;;;40.67;20.30;;;;;;;9.14;55.66;100524.19;5011708;28;98248;-71
2020/12/13 07:54:20;;;;;;;39.40;21.42;;;;;;;9.13;55.92;100524.09;5006615;28;99411;-70
2020/12/13 07:56:49;;;;;;;45.85;21.65;;;;;;;9.15;55.90;100525.09;5002229;28;96724;-71
2020/12/13 07:59:18;;;;;;;43.55;21.63;;;;;;;9.15;55.77;100531.25;5005569;28;97149;-71
2020/12/13 08:01:47;;;;;;;47.80;22.77;;;;;;;9.17;55.99;100533.94;4997999;28;98974;-71
2020/12/13 08:04:15;;;;;;;48.53;21.40;;;;;;;9.16;55.22;100533.03;5009118;28;98870;-71
2020/12/13 08:06:43;;;;;;;45.63;21.85;;;;;;;9.17;55.64;100542.72;5000317;28;97379;-71
2020/12/13 08:09:12;;;;;;;44.15;22.75;;;;;;;9.19;55.31;100548.03;5005467;28;96650;-71
2020/12/13 08:11:41;;;;;;;48.63;21.50;;;;;;;9.18;55.22;100547.13;5008402;28;97866;-71
2020/12/13 08:14:08;;;;;;;46.83;21.83;;;;;;;9.20;55.52;100555.06;5006606;28;97834;-71
2020/12/13 08:16:37;;;;;;;42.85;23.73;;;;;;;9.20;55.66;100560.31;5004633;28;96923;-71
2020/12/13 08:19:09;;;;;;;40.90;19.80;;;;;;;9.20;55.50;100555.97;5014150;28;96741;-70
2020/12/13 08:21:44;;;;;;;42.25;22.33;;;;;;;9.20;55.77;100553.34;5008956;28;98472;-71
2020/12/13 08:24:13;;;;;;;53.55;24.00;;;;;;;9.23;55.92;100557.88;4989544;28;99363;-71
2020/12/13 08:26:42;;;;;;;47.90;22.70;;;;;;;9.26;55.35;100562.34;5012084;27;96805;-71
2020/12/13 08:29:10;;;;;;;46.08;22.50;;;;;;;9.29;55.12;100568.66;5009137;28;97760;-71
2020/12/13 08:31:38;;;;;;;51.58;22.52;;;;;;;9.29;55.57;100566.03;5016242;28;97874;-71
2020/12/13 08:34:07;;;;;;;48.20;22.65;;;;;;;9.31;55.41;100569.66;5012780;28;98999;-71
2020/12/13 08:36:35;;;;;;;51.95;24.35;;;;;;;9.32;55.48;100573.19;5014394;27;96718;-71
2020/12/13 08:39:10;;;;;;;41.85;22.40;;;;;;;9.31;55.62;100572.28;5002175;27;97147;-71
2020/12/13 08:41:45;;;;;;;48.20;22.83;;;;;;;9.32;55.17;100579.34;5014612;27;97971;-71
2020/12/13 08:44:29;;;;;;;40.28;21.75;;;;;;;9.32;55.84;100584.59;4999416;28;99137;-71
2020/12/13 08:46:58;;;;;;;45.58;22.25;;;;;;;9.34;55.35;100590.81;5015082;28;97155;-71
2020/12/13 08:49:27;;;;;;;45.92;20.45;;;;;;;9.34;55.15;100585.56;5009630;28;97686;-71
2020/12/13 08:51:55;;;;;;;41.85;21.33;;;;;;;9.37;55.64;100590.97;5005989;28;98434;-71
2020/12/13 08:54:22;;;;;;;48.17;22.10;;;;;;;9.37;55.85;100590.06;4997780;28;97862;-70
2020/12/13 08:57:04;;;;;;;47.78;21.27;;;;;;;9.39;55.20;100599.81;4999791;28;97252;-71
2020/12/13 08:59:32;;;;;;;48.03;22.67;;;;;;;9.40;55.63;100595.50;5003833;28;97845;-71
2020/12/13 09:02:03;;;;;;;47.35;22.75;;;;;;;9.41;54.88;100605.16;5000497;28;99087;-70
2020/12/13 09:04:33;;;;;;;44.10;21.92;;;;;;;9.43;55.06;100604.41;5008181;28;97864;-72
2020/12/13 09:07:02;;;;;;;45.15;22.38;;;;;;;9.46;55.69;100611.53;5000876;27;98179;-71
2020/12/13 09:09:30;;;;;;;49.88;23.67;;;;;;;9.46;55.33;100609.81;5006589;28;97661;-71
2020/12/13 09:11:58;;;;;;;51.83;23.85;;;;;;;9.49;55.67;100612.59;4997438;28;99015;-72
2020/12/13 09:14:32;;;;;;;44.20;22.05;;;;;;;9.51;55.31;100618.81;4999059;27;98529;-71
2020/12/13 09:17:01;;;;;;;47.28;24.88;;;;;;;9.53;54.91;100611.94;5007239;28;97260;-71
2020/12/13 09:19:29;;;;;;;46.47;23.02;;;;;;;9.54;55.02;100610.25;4999839;28;98341;-71
2020/12/13 09:21:57;;;;;;;54.33;23.70;;;;;;;9.54;54.94;100616.41;5002372;28;98207;-71
2020/12/13 09:24:27;;;;;;;47.55;24.13;;;;;;;9.55;55.42;100617.28;4997615;28;98989;-71
2020/12/13 09:27:18;;;;;;;43.58;22.58;;;;;;;9.53;55.19;100621.53;4994581;28;97850;-71
2020/12/13 09:29:47;;;;;;;46.70;22.70;;;;;;;9.58;55.37;100623.59;4997071;28;97299;-72
2020/12/13 09:32:16;;;;;;;51.38;22.45;;;;;;;9.60;55.29;100621.94;4996963;28;98965;-71
2020/12/13 09:34:44;;;;;;;46.28;22.45;;;;;;;9.63;55.20;100624.75;4995154;28;99019;-71
2020/12/13 09:37:13;;;;;;;46.75;23.75;;;;;;;9.66;55.10;100631.88;4993204;28;97272;-71
2020/12/13 09:39:41;;;;;;;44.90;22.50;;;;;;;9.68;55.35;100625.00;5003001;28;97197;-71
2020/12/13 09:42:29;;;;;;;52.28;24.00;;;;;;;9.68;55.39;100627.63;4994624;28;99379;-72
2020/12/13 09:44:57;;;;;;;42.17;22.13;;;;;;;9.69;54.98;100619.81;4991866;28;98117;-72
2020/12/13 09:47:24;;;;;;;48.38;22.67;;;;;;;9.70;55.23;100629.50;4991050;28;97178;-72
2020/12/13 09:49:52;;;;;;;47.97;23.40;;;;;;;9.70;55.18;100629.50;5004216;28;97319;-70
2020/12/13 09:52:19;;;;;;;61.30;31.20;;;;;;;9.89;54.92;100629.66;4989649;28;98095;-72
2020/12/13 09:54:47;;;;;;;45.75;23.05;;;;;;;9.82;54.74;100630.16;5000205;28;96991;-70
2020/12/13 09:57:14;;;;;;;48.15;23.52;;;;;;;9.82;55.29;100638.03;4997096;28;97400;-70
2020/12/13 09:59:42;;;;;;;50.00;24.67;;;;;;;9.82;55.41;100632.78;4997297;28;97296;-72
2020/12/13 10:02:10;;;;;;;49.00;25.17;;;;;;;9.85;54.68;100639.94;4994105;28;97159;-71
2020/12/13 10:04:38;;;;;;;48.97;24.80;;;;;;;9.86;55.45;100642.63;4999544;28;99136;-71
2020/12/13 10:07:22;;;;;;;48.05;24.45;;;;;;;9.87;55.20;100644.41;4994050;28;97310;-71
2020/12/13 10:09:49;;;;;;;43.38;23.05;;;;;;;9.86;55.13;100647.88;4993065;28;97970;-72
2020/12/13 10:12:17;;;;;;;46.60;23.83;;;;;;;9.86;54.47;100641.72;4990444;28;97938;-71
2020/12/13 10:14:45;;;;;;;50.67;25.55;;;;;;;9.84;54.82;100645.97;4994399;28;99369;-71
2020/12/13 10:17:14;;;;;;;45.15;24.77;;;;;;;9.84;55.32;100641.63;4993244;28;96991;-72
2020/12/13 10:19:41;;;;;;;45.30;24.02;;;;;;;9.83;55.25;100644.19;4991792;28;97259;-70
2020/12/13 10:22:09;;;;;;;52.97;25.20;;;;;;;9.83;54.92;100645.09;4994941;28;97887;-70
2020/12/13 10:24:37;;;;;;;45.83;24.50;;;;;;;9.84;54.69;100649.50;4994277;28;97970;-70
2020/12/13 10:27:04;;;;;;;51.38;23.85;;;;;;;9.83;55.02;100641.56;5023195;22;99486;-77
2020/12/13 10:29:32;;;;;;;51.60;24.20;;;;;;;9.83;55.61;100646.81;5015083;28;96902;-76
2020/12/13 10:32:00;;;;;;;55.40;24.80;;;;;;;9.85;54.68;100651.28;5014278;28;99078;-76
2020/12/13 10:34:33;;;;;;;50.83;25.00;;;;;;;9.87;55.53;100651.41;5012713;28;99946;-74
2020/12/13 10:37:00;;;;;;;51.42;25.00;;;;;;;9.86;55.32;100653.13;5005227;28;96888;-76
2020/12/13 10:39:28;;;;;;;51.78;24.77;;;;;;;9.84;55.23;100656.47;5001139;28;98042;-77
2020/12/13 10:41:56;;;;;;;65.75;34.50;;;;;;;10.02;55.08;100647.84;4999317;28;97941;-76
2020/12/13 10:44:23;;;;;;;53.80;26.98;;;;;;;9.94;55.42;100650.91;4998695;28;99216;-76
2020/12/13 10:46:55;;;;;;;65.40;31.25;;;;;;;9.91;55.50;100641.13;5000917;28;97318;-75
2020/12/13 10:49:23;;;;;;;85.28;38.92;;;;;;;9.91;55.37;100640.22;5003894;28;96847;-75
2020/12/13 10:51:52;;;;;;;51.60;26.58;;;;;;;9.91;55.00;100640.22;4988272;28;99057;-75
2020/12/13 10:54:20;;;;;;;42.78;21.83;;;;;;;9.92;54.62;100642.06;4998580;28;102261;-75
2020/12/13 10:56:47;;;;;;;45.40;22.52;;;;;;;9.92;55.48;100642.06;5001377;28;96845;-75
2020/12/13 10:59:15;;;;;;;49.85;24.58;;;;;;;9.93;54.69;100643.84;5003261;28;97290;-75
2020/12/13 11:01:47;;;;;;;47.05;24.33;;;;;;;9.90;55.63;100644.59;4997273;28;97963;-75
2020/12/13 11:04:17;;;;;;;48.72;23.05;;;;;;;9.91;55.13;100645.47;4997564;28;99066;-74
2020/12/13 11:06:46;;;;;;;46.78;22.20;;;;;;;9.90;55.48;100634.09;5001188;28;97070;-74
2020/12/13 11:09:14;;;;;;;49.13;23.73;;;;;;;9.94;55.33;100637.78;5004076;28;96925;-72
2020/12/13 11:11:42;;;;;;;48.17;23.85;;;;;;;9.95;55.22;100643.09;4999225;28;99098;-74
2020/12/13 11:14:09;;;;;;;49.15;25.30;;;;;;;9.94;55.62;100645.66;4993757;28;100604;-75
2020/12/13 11:16:37;;;;;;;53.08;24.80;;;;;;;9.97;55.24;100648.44;5001656;28;97607;-76
2020/12/13 11:19:05;;;;;;;50.38;25.38;;;;;;;10.00;54.99;100646.88;5002707;28;97002;-75
2020/12/13 11:21:33;;;;;;;47.45;24.98;;;;;;;10.02;55.41;100649.56;4998476;28;97229;-74
2020/12/13 11:24:00;;;;;;;45.60;23.85;;;;;;;10.02;55.41;100655.72;4999596;28;99118;-74
2020/12/13 11:26:29;;;;;;;50.33;25.90;;;;;;;10.01;54.73;100648.69;4979468;28;97475;-75